高雄國際航空站 - 塔台/地面席

METAR RCKH 270900Z 28009KT 9999 FEW016 BKN040 28/21 Q1010 NOSIG RMK A2985=

站台狀態:Offline
最後更新:2020-10-27 17:00:01